Time;durP1;ratioP1;P1;durP2;ratioP2;P2;SDS_P1;SDS_P2;PMS_P1;PMS_P2;Temp;Humidity;BMP_temperature;BMP_pressure;BME280_temperature;BME280_humidity;BME280_pressure;Samples;Min_cycle;Max_cycle;Signal;HPM_P1;HPM_P2
2022/08/16 00:00:26;;;;;;;14.20;7.60;;;;;;;18.96;61.64;100563.16;4751062;30;20052;-78
2022/08/16 00:02:53;;;;;;;15.63;7.38;;;;;;;18.94;61.24;100562.31;4751249;30;20066;-79
2022/08/16 00:05:22;;;;;;;15.63;7.28;;;;;;;18.96;61.04;100565.81;4757693;30;20059;-80
2022/08/16 00:07:49;;;;;;;12.95;7.20;;;;;;;18.87;61.34;100556.34;4756623;30;20076;-79
2022/08/16 00:10:16;;;;;;;12.73;7.68;;;;;;;18.95;61.43;100564.91;4755173;30;20071;-79
2022/08/16 00:12:43;;;;;;;15.88;7.20;;;;;;;18.97;61.24;100567.53;4740671;30;20046;-80
2022/08/16 00:15:17;;;;;;;14.38;7.80;;;;;;;18.98;61.43;100565.75;4733399;30;20106;-80
2022/08/16 00:17:44;;;;;;;16.17;7.75;;;;;;;18.98;61.10;100563.09;4734812;30;20044;-80
2022/08/16 00:20:10;;;;;;;14.63;7.10;;;;;;;18.90;61.19;100555.41;4734950;30;20048;-80
2022/08/16 00:22:39;;;;;;;17.15;7.57;;;;;;;18.86;61.01;100549.38;4749091;30;20048;-80
2022/08/16 00:25:08;;;;;;;15.60;6.88;;;;;;;18.80;61.16;100549.56;4733817;30;20066;-80
2022/08/16 00:27:34;;;;;;;13.45;7.22;;;;;;;18.89;61.29;100572.13;4735452;30;20459;-80
2022/08/16 00:30:05;;;;;;;13.63;6.63;;;;;;;18.90;61.06;100573.88;4720241;30;20048;-80
2022/08/16 00:32:31;;;;;;;18.40;7.40;;;;;;;18.90;61.04;100564.16;4721664;30;20108;-80
2022/08/16 00:34:57;;;;;;;12.60;7.13;;;;;;;18.91;61.12;100568.53;4735445;30;20557;-79
2022/08/16 00:37:25;;;;;;;16.00;7.03;;;;;;;18.89;60.77;100562.44;4750981;30;20050;-80
2022/08/16 00:39:52;;;;;;;12.55;6.95;;;;;;;18.91;60.83;100559.78;4734703;30;20055;-79
2022/08/16 00:42:19;;;;;;;17.20;8.18;;;;;;;18.87;60.80;100566.91;4740506;30;20059;-78
2022/08/16 00:44:54;;;;;;;24.92;7.50;;;;;;;18.87;60.89;100566.03;4722084;30;20052;-80
2022/08/16 00:47:23;;;;;;;23.88;7.28;;;;;;;18.73;60.56;100542.75;4759340;30;20048;-78
2022/08/16 00:49:52;;;;;;;18.60;7.68;;;;;;;18.73;60.52;100542.75;4759246;30;20148;-80
2022/08/16 00:52:18;;;;;;;16.67;7.50;;;;;;;18.81;60.54;100556.56;4762126;30;20044;-79
2022/08/16 00:54:45;;;;;;;20.48;7.57;;;;;;;18.76;60.27;100554.03;4751900;30;20064;-79
2022/08/16 00:57:12;;;;;;;23.60;7.97;;;;;;;18.78;60.50;100552.22;4739423;29;20040;-79
2022/08/16 00:59:39;;;;;;;17.90;7.43;;;;;;;18.84;60.45;100569.66;4773171;29;20044;-78
2022/08/16 01:02:08;;;;;;;12.15;6.85;;;;;;;18.81;60.57;100565.31;4773295;29;20135;-80
2022/08/16 01:04:36;;;;;;;13.20;6.97;;;;;;;18.76;60.28;100566.38;4758835;30;20051;-79
2022/08/16 01:07:04;;;;;;;12.95;6.78;;;;;;;18.77;60.40;100573.38;4739931;30;20052;-78
2022/08/16 01:09:33;;;;;;;13.98;7.13;;;;;;;18.69;60.35;100556.94;4754638;30;20481;-79
2022/08/16 01:12:02;;;;;;;12.75;6.75;;;;;;;18.73;60.18;100571.75;4754770;30;20048;-79
2022/08/16 01:14:37;;;;;;;13.57;7.07;;;;;;;18.64;60.31;100568.50;4737454;30;20505;-80
2022/08/16 01:17:04;;;;;;;11.70;6.03;;;;;;;18.72;60.21;100575.28;4756206;30;20438;-80
2022/08/16 01:19:53;;;;;;;10.65;6.40;;;;;;;18.70;60.18;100587.66;4756201;29;20048;-80
2022/08/16 01:22:37;;;;;;;9.38;6.45;;;;;;;18.59;60.14;100572.16;4769018;30;20062;-78
2022/08/16 01:25:17;;;;;;;10.90;6.57;;;;;;;18.53;60.19;100578.47;4753918;30;20043;-78
2022/08/16 01:27:45;;;;;;;14.27;6.50;;;;;;;18.58;60.15;100580.97;4753765;30;20051;-78
2022/08/16 01:30:18;;;;;;;20.08;6.80;;;;;;;18.55;60.34;100591.59;4737030;30;20043;-79
2022/08/16 01:32:44;;;;;;;13.55;7.07;;;;;;;18.43;60.52;100577.00;4738759;30;20070;-79
2022/08/16 01:35:36;;;;;;;14.75;6.35;;;;;;;18.47;60.50;100587.44;4754597;30;20077;-79
2022/08/16 01:38:14;;;;;;;13.18;6.50;;;;;;;18.45;60.45;100591.00;4711352;30;20044;-78
2022/08/16 01:40:40;;;;;;;12.88;7.00;;;;;;;18.39;60.46;100586.78;4738571;30;20048;-78
2022/08/16 01:43:07;;;;;;;9.50;6.68;;;;;;;18.38;60.68;100581.56;4737180;30;20532;-78
2022/08/16 01:45:34;;;;;;;13.48;5.90;;;;;;;18.39;60.13;100596.47;4751838;30;20055;-79
2022/08/16 01:48:01;;;;;;;10.35;6.00;;;;;;;18.35;60.23;100593.03;4737938;30;20043;-80
2022/08/16 01:50:28;;;;;;;11.48;6.45;;;;;;;18.25;60.40;100581.06;4736151;30;20052;-79
2022/08/16 01:52:54;;;;;;;11.18;6.60;;;;;;;18.26;60.48;100594.16;4737574;30;20047;-79
2022/08/16 01:55:30;;;;;;;12.25;6.50;;;;;;;18.27;60.61;100595.06;4722464;30;20478;-79
2022/08/16 01:57:57;;;;;;;11.88;6.43;;;;;;;18.14;60.49;100579.56;4724625;30;20040;-80
2022/08/16 02:00:25;;;;;;;9.57;6.45;;;;;;;18.20;60.62;100594.38;4737330;30;20117;-79
2022/08/16 02:02:51;;;;;;;15.13;6.65;;;;;;;18.16;60.55;100592.72;4770147;30;20048;-79
2022/08/16 02:05:18;;;;;;;7.15;5.55;;;;;;;18.14;60.60;100592.75;4766038;30;20377;-80
2022/08/16 02:07:45;;;;;;;12.95;7.22;;;;;;;18.08;61.00;100594.69;4755132;30;20056;-80
2022/08/16 02:10:15;;;;;;;12.40;5.85;;;;;;;18.06;60.84;100602.66;4739827;30;20051;-80
2022/08/16 02:12:43;;;;;;;12.23;6.20;;;;;;;18.02;60.77;100593.94;4742709;30;20052;-79
2022/08/16 02:15:13;;;;;;;10.10;6.20;;;;;;;17.91;60.73;100583.66;4736429;30;20047;-80
2022/08/16 02:17:40;;;;;;;12.90;6.05;;;;;;;17.88;60.94;100590.78;4751204;30;20356;-79
2022/08/16 02:20:07;;;;;;;13.82;6.18;;;;;;;17.92;60.89;100597.72;4751484;30;20155;-79
2022/08/16 02:22:34;;;;;;;8.82;6.15;;;;;;;17.96;61.07;100602.00;4736643;30;20120;-78
2022/08/16 02:25:06;;;;;;;11.07;5.88;;;;;;;17.95;61.11;100599.38;4750687;30;20047;-80
2022/08/16 02:27:32;;;;;;;;;;;;;;;17.98;60.74;100605.50;4738271;30;20116;-79
2022/08/16 02:29:58;;;;;;;12.07;6.55;;;;;;;17.97;60.81;100598.47;4736520;30;21347;-80
2022/08/16 02:32:25;;;;;;;12.95;6.47;;;;;;;17.77;60.81;100573.50;4751365;30;20107;-78
2022/08/16 02:34:51;;;;;;;9.07;6.07;;;;;;;17.97;61.10;100602.84;4736317;30;20189;-79
2022/08/16 02:37:20;;;;;;;8.85;6.05;;;;;;;17.97;60.77;100595.81;4737248;30;20154;-80
2022/08/16 02:39:46;;;;;;;10.25;6.53;;;;;;;17.96;60.79;100599.38;4751490;30;20048;-80
2022/08/16 02:42:12;;;;;;;11.07;6.68;;;;;;;17.95;60.85;100600.28;4735796;30;20542;-79
2022/08/16 02:44:40;;;;;;;10.93;6.72;;;;;;;17.91;61.08;100598.63;4751384;30;20036;-79
2022/08/16 02:47:06;;;;;;;17.65;6.82;;;;;;;17.96;60.88;100604.63;4744089;30;20051;-80
2022/08/16 02:49:32;;;;;;;21.27;7.38;;;;;;;17.91;61.18;100603.88;4750822;30;20047;-80
2022/08/16 02:51:58;;;;;;;10.77;6.32;;;;;;;17.93;61.24;100615.25;4735711;30;20048;-80
2022/08/16 02:54:24;;;;;;;14.55;6.47;;;;;;;17.96;61.37;100609.91;4751162;29;20068;-80
2022/08/16 02:56:51;;;;;;;19.92;7.03;;;;;;;18.04;61.09;100610.56;4748129;30;20087;-80
2022/08/16 02:59:17;;;;;;;17.58;7.22;;;;;;;17.89;61.44;100577.59;4737724;30;20048;-79
2022/08/16 03:01:43;;;;;;;11.52;6.47;;;;;;;18.13;61.44;100616.50;4735381;30;20056;-80
2022/08/16 03:04:18;;;;;;;15.70;6.78;;;;;;;18.12;61.12;100612.13;4732641;30;20106;-80
2022/08/16 03:06:44;;;;;;;16.30;7.15;;;;;;;18.04;61.12;100602.66;4748583;30;20397;-80
2022/08/16 03:09:18;;;;;;;11.50;6.60;;;;;;;18.13;61.11;100611.22;4737358;30;20101;-79
2022/08/16 03:11:49;;;;;;;12.15;6.45;;;;;;;18.13;61.10;100601.56;4737065;30;20056;-79
2022/08/16 03:14:15;;;;;;;14.63;6.72;;;;;;;18.26;60.81;100623.16;4722063;30;20063;-78
2022/08/16 03:16:41;;;;;;;13.23;6.30;;;;;;;18.30;60.77;100616.88;4735879;30;20107;-78
2022/08/16 03:19:07;;;;;;;16.83;7.13;;;;;;;18.30;60.85;100618.69;4736395;30;20062;-78
2022/08/16 03:21:35;;;;;;;15.70;6.68;;;;;;;18.20;60.61;100597.00;4722308;30;20075;-79
2022/08/16 03:24:02;;;;;;;13.48;6.88;;;;;;;18.32;60.73;100609.81;4734421;30;20044;-79
2022/08/16 03:26:28;;;;;;;15.32;6.65;;;;;;;18.41;60.67;100627.13;4753038;30;20489;-78
2022/08/16 03:28:55;;;;;;;12.05;6.68;;;;;;;18.42;60.74;100612.19;4736586;30;20127;-79
2022/08/16 03:31:22;;;;;;;12.48;6.28;;;;;;;18.57;60.28;100618.78;4735601;30;20063;-79
2022/08/16 03:33:48;;;;;;;11.73;6.20;;;;;;;18.61;60.48;100613.38;4736665;30;20523;-77
2022/08/16 03:36:14;;;;;;;13.32;6.50;;;;;;;18.72;59.94;100626.25;4720731;30;20416;-79
2022/08/16 03:38:41;;;;;;;9.80;6.47;;;;;;;18.67;59.70;100613.19;4753936;30;20048;-78
2022/08/16 03:41:11;;;;;;;14.52;6.63;;;;;;;18.75;59.64;100610.34;4748498;30;20044;-80
2022/08/16 03:43:40;;;;;;;11.55;6.40;;;;;;;18.86;59.91;100624.97;4750197;30;20048;-79
2022/08/16 03:46:06;;;;;;;9.95;6.22;;;;;;;18.94;59.36;100626.44;4751154;30;20160;-79
2022/08/16 03:48:38;;;;;;;11.63;6.45;;;;;;;19.03;59.38;100614.78;4721448;30;20419;-81
2022/08/16 03:51:11;;;;;;;10.23;6.00;;;;;;;19.11;58.84;100618.06;4722779;30;20051;-78
2022/08/16 03:53:43;;;;;;;10.93;6.30;;;;;;;19.22;58.97;100623.00;4734913;30;20117;-79
2022/08/16 03:56:10;;;;;;;11.02;6.18;;;;;;;19.25;58.77;100614.97;4719428;30;20051;-81
2022/08/16 03:58:37;;;;;;;12.57;6.60;;;;;;;19.38;58.49;100626.00;4735558;30;20040;-79
2022/08/16 04:01:05;;;;;;;12.18;6.28;;;;;;;19.48;58.52;100609.84;4735512;30;20060;-80
2022/08/16 04:03:33;;;;;;;15.85;6.78;;;;;;;19.76;58.21;100624.78;4739939;30;20517;-80
2022/08/16 04:05:59;;;;;;;12.73;6.95;;;;;;;19.78;57.27;100622.94;4753791;30;20039;-80
2022/08/16 04:08:26;;;;;;;16.98;7.53;;;;;;;19.93;57.71;100624.22;4763851;30;20112;-80
2022/08/16 04:10:55;;;;;;;13.88;6.35;;;;;;;19.96;57.35;100605.63;4740809;30;20054;-80
2022/08/16 04:13:23;;;;;;;11.23;6.43;;;;;;;20.13;57.10;100607.66;4753642;30;20044;-80
2022/08/16 04:15:51;;;;;;;11.93;6.55;;;;;;;20.41;56.62;100618.06;4752523;30;20052;-80
2022/08/16 04:18:22;;;;;;;11.75;6.50;;;;;;;20.59;56.29;100616.53;4770875;30;20036;-80
2022/08/16 04:20:52;;;;;;;11.70;6.10;;;;;;;20.74;55.96;100623.03;4751710;30;20056;-78
2022/08/16 04:23:23;;;;;;;;;;;;;;;20.91;55.49;100621.53;4767086;30;20135;-79
2022/08/16 04:25:49;;;;;;;14.63;6.30;;;;;;;20.98;54.85;100615.09;4741523;30;19926;-78
2022/08/16 04:28:16;;;;;;;11.85;6.72;;;;;;;21.13;55.09;100610.09;4753374;30;20048;-77
2022/08/16 04:30:43;;;;;;;12.02;6.28;;;;;;;21.25;54.53;100620.22;4757487;29;20067;-78
2022/08/16 04:33:09;;;;;;;13.93;5.90;;;;;;;21.40;54.29;100625.78;4750992;30;20076;-78
2022/08/16 04:35:38;;;;;;;8.10;5.78;;;;;;;21.44;53.53;100609.72;4745747;30;20068;-78
2022/08/16 04:38:06;;;;;;;9.23;5.50;;;;;;;21.57;53.46;100618.00;4772195;30;20065;-77
2022/08/16 04:40:38;;;;;;;10.60;5.47;;;;;;;21.77;53.40;100627.81;4760155;30;20835;-79
2022/08/16 04:43:05;;;;;;;10.10;6.18;;;;;;;21.92;53.02;100636.88;4746407;30;20055;-80
2022/08/16 04:45:32;;;;;;;15.07;6.00;;;;;;;21.99;52.65;100623.34;4734776;30;20063;-78
2022/08/16 04:47:59;;;;;;;12.48;5.90;;;;;;;22.19;51.88;100635.72;4750685;30;20395;-78
2022/08/16 04:50:31;;;;;;;15.27;5.35;;;;;;;22.39;51.87;100635.69;4729157;30;20149;-78
2022/08/16 04:53:01;;;;;;;14.00;6.53;;;;;;;22.51;51.25;100636.97;4741229;30;20059;-79
2022/08/16 04:55:32;;;;;;;15.35;6.30;;;;;;;22.62;50.69;100620.56;4744534;30;20083;-79
2022/08/16 04:57:58;;;;;;;11.80;5.85;;;;;;;22.85;50.82;100631.88;4761043;30;20067;-78
2022/08/16 05:00:32;;;;;;;11.55;5.93;;;;;;;23.02;50.29;100623.97;4755431;30;20121;-78
2022/08/16 05:03:09;;;;;;;11.80;5.68;;;;;;;23.16;49.60;100610.03;4712516;30;20092;-78
2022/08/16 05:05:55;;;;;;;10.13;5.60;;;;;;;23.36;49.15;100621.50;4739995;30;20145;-79
2022/08/16 05:08:24;;;;;;;9.52;5.65;;;;;;;23.55;48.81;100616.16;4739061;30;20079;-78
2022/08/16 05:11:06;;;;;;;10.90;5.25;;;;;;;23.75;48.46;100606.31;4740166;30;20051;-78
2022/08/16 05:13:34;;;;;;;10.35;5.60;;;;;;;23.99;48.38;100616.63;4743018;30;20056;-78
2022/08/16 05:16:01;;;;;;;13.48;6.18;;;;;;;24.25;47.94;100614.41;4755845;30;20429;-79
2022/08/16 05:18:27;;;;;;;10.90;5.40;;;;;;;24.37;47.40;100613.72;4740515;30;20048;-79
2022/08/16 05:20:55;;;;;;;11.77;6.55;;;;;;;24.68;47.00;100617.38;4740001;30;20131;-79
2022/08/16 05:23:21;;;;;;;13.07;5.88;;;;;;;24.83;46.74;100610.34;4740667;30;20047;-81
2022/08/16 05:25:48;;;;;;;10.10;5.45;;;;;;;25.23;46.04;100601.91;4748636;30;20293;-80
2022/08/16 05:28:16;;;;;;;7.40;5.18;;;;;;;26.10;45.93;100607.47;4763088;30;20074;-80
2022/08/16 05:30:47;;;;;;;11.20;5.45;;;;;;;27.58;43.51;100591.00;4735990;30;20059;-79
2022/08/16 05:33:22;;;;;;;13.35;5.30;;;;;;;29.49;40.09;100601.53;4739024;30;20112;-79
2022/08/16 05:35:49;;;;;;;8.35;4.95;;;;;;;30.87;36.95;100590.78;4734117;30;20059;-81
2022/08/16 05:38:26;;;;;;;10.20;5.32;;;;;;;32.42;35.67;100578.50;4749975;30;20063;-80
2022/08/16 05:40:54;;;;;;;8.55;4.78;;;;;;;33.94;34.04;100590.78;4751012;30;20047;-80
2022/08/16 05:43:21;;;;;;;10.80;5.38;;;;;;;35.41;31.48;100587.19;4762978;30;20056;-80
2022/08/16 05:45:47;;;;;;;9.13;4.40;;;;;;;36.54;29.58;100582.75;4750552;30;20044;-79
2022/08/16 05:48:15;;;;;;;9.55;4.95;;;;;;;37.47;27.46;100588.97;4746711;30;20071;-78
2022/08/16 05:50:50;;;;;;;31.77;29.00;;;;;;;37.69;25.84;100602.84;4739124;30;20074;-80
2022/08/16 05:53:17;;;;;;;9.98;5.35;;;;;;;38.48;24.45;100593.13;4753229;30;20062;-79
2022/08/16 05:55:58;;;;;;;7.63;4.53;;;;;;;39.24;23.72;100590.56;4737056;30;20055;-79
2022/08/16 05:58:25;;;;;;;4.30;3.90;;;;;;;38.83;23.01;100599.88;4731096;30;20040;-79
2022/08/16 06:00:51;;;;;;;4.47;3.65;;;;;;;39.08;22.06;100597.00;4741562;30;20133;-79
2022/08/16 06:03:17;;;;;;;6.47;3.95;;;;;;;39.22;22.18;100591.78;4739129;30;20050;-79
2022/08/16 06:06:13;;;;;;;5.88;4.15;;;;;;;38.73;21.80;100593.81;4763549;29;20079;-79
2022/08/16 06:08:39;;;;;;;8.57;3.60;;;;;;;38.34;22.36;100592.81;4772558;29;20048;-80
2022/08/16 06:11:07;;;;;;;7.20;3.83;;;;;;;39.06;21.72;100595.50;4738813;30;20658;-78
2022/08/16 06:13:36;;;;;;;6.50;3.60;;;;;;;39.64;21.32;100594.97;4738679;30;20043;-80
2022/08/16 06:16:04;;;;;;;7.97;4.20;;;;;;;39.57;20.95;100584.84;4743287;30;20080;-79
2022/08/16 06:18:32;;;;;;;5.38;3.60;;;;;;;40.10;20.38;100583.09;4751904;30;20488;-80
2022/08/16 06:20:59;;;;;;;6.03;4.05;;;;;;;39.45;20.09;100591.78;4753849;30;20048;-80
2022/08/16 06:23:26;;;;;;;8.68;3.60;;;;;;;38.92;20.96;100584.38;4722536;30;20044;-80
2022/08/16 06:25:58;;;;;;;8.85;3.78;;;;;;;40.11;19.98;100588.34;4721368;30;20071;-80
2022/08/16 06:28:29;;;;;;;4.82;3.67;;;;;;;40.24;19.86;100579.53;4721509;30;20044;-80
2022/08/16 06:30:54;;;;;;;5.35;3.67;;;;;;;40.59;19.31;100592.50;4738644;30;20048;-78
2022/08/16 06:33:20;;;;;;;6.75;3.72;;;;;;;41.05;18.30;100588.59;4721452;30;20109;-78
2022/08/16 06:35:47;;;;;;;4.75;3.85;;;;;;;40.48;18.75;100594.72;4753010;30;20101;-79
2022/08/16 06:38:13;;;;;;;7.25;4.10;;;;;;;41.32;18.13;100591.56;4737004;30;20054;-79
2022/08/16 06:40:39;;;;;;;6.85;4.10;;;;;;;41.81;17.81;100581.66;4737188;30;20048;-79
2022/08/16 06:43:06;;;;;;;6.97;3.70;;;;;;;43.10;16.52;100581.03;4736860;30;20093;-80
2022/08/16 06:45:46;;;;;;;7.88;3.25;;;;;;;42.79;16.67;100575.09;4738052;30;20146;-79
2022/08/16 06:48:24;;;;;;;7.47;4.40;;;;;;;43.37;16.64;100586.53;4742203;30;20056;-79
2022/08/16 06:50:51;;;;;;;5.85;4.22;;;;;;;43.88;15.87;100588.56;4744714;30;20070;-79
2022/08/16 06:53:19;;;;;;;6.07;3.80;;;;;;;43.82;15.84;100589.41;4721958;30;20056;-79
2022/08/16 06:55:57;;;;;;;5.75;3.22;;;;;;;45.02;14.98;100567.09;4753290;30;20113;-78
2022/08/16 06:58:26;;;;;;;6.53;4.15;;;;;;;45.48;14.22;100584.22;4736603;30;20078;-78
2022/08/16 07:01:00;;;;;;;4.40;3.95;;;;;;;45.92;14.36;100567.72;4721421;30;20362;-80
2022/08/16 07:03:29;;;;;;;5.82;4.20;;;;;;;45.78;14.08;100556.91;4723626;30;20100;-79
2022/08/16 07:05:57;;;;;;;5.03;3.92;;;;;;;45.51;13.97;100579.13;4724072;30;20109;-79
2022/08/16 07:08:36;;;;;;;5.25;3.80;;;;;;;45.83;14.23;100565.25;4736289;30;20044;-80
2022/08/16 07:11:04;;;;;;;4.80;3.38;;;;;;;45.99;13.45;100566.53;4734649;30;20602;-79
2022/08/16 07:13:34;;;;;;;5.53;3.38;;;;;;;45.77;13.47;100571.69;4734362;30;20047;-79
2022/08/16 07:16:02;;;;;;;6.35;3.47;;;;;;;44.78;13.96;100562.22;4739053;30;20067;-78
2022/08/16 07:18:28;;;;;;;4.95;3.47;;;;;;;43.89;14.39;100575.69;4722882;30;20043;-80
2022/08/16 07:20:57;;;;;;;3.83;3.35;;;;;;;43.74;14.96;100560.38;4737467;30;20070;-78
2022/08/16 07:23:36;;;;;;;4.43;3.40;;;;;;;44.12;14.63;100574.38;4735347;30;20390;-80
2022/08/16 07:26:05;;;;;;;7.47;4.72;;;;;;;43.95;14.67;100561.13;4735176;30;20147;-79
2022/08/16 07:28:31;;;;;;;5.97;4.22;;;;;;;43.65;14.82;100572.59;4734311;30;20039;-81
2022/08/16 07:30:58;;;;;;;5.75;3.20;;;;;;;44.24;14.54;100567.97;4736201;30;20147;-79
2022/08/16 07:33:39;;;;;;;5.15;3.20;;;;;;;45.28;13.92;100572.38;4727837;30;20131;-80
2022/08/16 07:36:07;;;;;;;4.72;3.30;;;;;;;45.17;14.09;100561.28;4744525;30;20043;-80
2022/08/16 07:38:36;;;;;;;4.25;3.53;;;;;;;45.86;13.66;100562.06;4766940;30;20043;-79
2022/08/16 07:41:03;;;;;;;4.60;3.35;;;;;;;47.26;12.85;100563.03;4758620;30;20060;-78
2022/08/16 07:43:31;;;;;;;7.38;3.67;;;;;;;47.49;12.05;100575.09;4757819;30;20036;-79
2022/08/16 07:46:06;;;;;;;4.93;3.60;;;;;;;45.76;12.97;100570.03;4768033;30;20074;-79
2022/08/16 07:48:45;;;;;;;10.07;3.58;;;;;;;45.72;12.63;100575.09;4741995;30;20414;-79
2022/08/16 07:51:11;;;;;;;5.22;3.28;;;;;;;44.95;13.24;100583.63;4770848;30;20081;-80
2022/08/16 07:53:40;;;;;;;5.32;3.28;;;;;;;43.53;14.78;100579.78;4744874;30;21114;-80
2022/08/16 07:56:06;;;;;;;6.10;3.80;;;;;;;43.73;14.59;100574.25;4764416;30;20036;-79
2022/08/16 07:58:36;;;;;;;3.92;3.50;;;;;;;43.96;14.65;100565.56;4753126;30;20438;-80
2022/08/16 08:01:08;;;;;;;5.35;3.25;;;;;;;44.13;14.12;100551.38;4755648;30;20150;-79
2022/08/16 08:03:34;;;;;;;5.13;3.10;;;;;;;45.22;13.50;100567.75;4741911;30;20051;-80
2022/08/16 08:06:00;;;;;;;4.45;3.03;;;;;;;46.01;12.79;100560.84;4743184;30;20063;-79
2022/08/16 08:08:27;;;;;;;5.57;2.97;;;;;;;45.39;13.02;100575.44;4773015;30;20067;-78
2022/08/16 08:10:53;;;;;;;5.43;3.70;;;;;;;44.02;13.28;100567.44;4759319;29;20059;-79
2022/08/16 08:13:19;;;;;;;5.47;3.03;;;;;;;43.53;14.36;100574.28;4775872;29;20172;-79
2022/08/16 08:15:46;;;;;;;5.72;2.92;;;;;;;44.41;13.74;100561.97;4770496;29;20106;-79
2022/08/16 08:18:13;;;;;;;5.70;3.92;;;;;;;44.65;13.83;100565.88;4752034;30;20051;-78
2022/08/16 08:20:43;;;;;;;5.07;3.60;;;;;;;44.56;13.47;100558.97;4749082;30;20060;-78
2022/08/16 08:23:12;;;;;;;7.70;3.40;;;;;;;45.16;13.45;100560.41;4737576;30;20122;-79
2022/08/16 08:25:42;;;;;;;4.28;3.33;;;;;;;46.27;12.68;100556.06;4750406;30;20052;-79
2022/08/16 08:28:09;;;;;;;7.07;3.20;;;;;;;46.71;12.38;100564.13;4739314;30;20048;-81
2022/08/16 08:30:36;;;;;;;4.38;3.55;;;;;;;45.48;13.46;100559.50;4721941;30;20060;-78
2022/08/16 08:33:05;;;;;;;6.90;3.42;;;;;;;44.68;13.48;100559.09;4720530;30;20482;-80
2022/08/16 08:35:35;;;;;;;5.15;3.55;;;;;;;44.31;13.42;100548.75;4734560;30;20055;-79
2022/08/16 08:38:05;;;;;;;11.35;3.40;;;;;;;43.70;13.81;100548.16;4711720;30;20044;-79
2022/08/16 08:40:31;;;;;;;5.93;3.35;;;;;;;42.69;14.25;100556.34;4750797;30;20120;-79
2022/08/16 08:43:00;;;;;;;5.80;2.88;;;;;;;43.51;14.36;100536.16;4750855;30;20525;-78
2022/08/16 08:45:28;;;;;;;5.28;3.13;;;;;;;44.92;13.58;100542.91;4747923;30;20052;-79
2022/08/16 08:48:00;;;;;;;4.10;3.17;;;;;;;43.52;13.61;100551.53;4735961;30;20092;-81
2022/08/16 08:50:31;;;;;;;9.43;3.25;;;;;;;42.77;14.39;100530.69;4734645;30;20083;-79
2022/08/16 08:52:57;;;;;;;3.67;2.92;;;;;;;43.32;14.16;100535.16;4735879;30;20048;-78
2022/08/16 08:55:25;;;;;;;4.45;3.50;;;;;;;43.38;14.22;100538.94;4733043;30;20056;-79
2022/08/16 08:57:51;;;;;;;7.30;3.50;;;;;;;42.79;14.35;100525.88;4720560;30;20079;-81
2022/08/16 09:00:36;;;;;;;5.85;3.08;;;;;;;42.36;14.61;100534.38;4735346;30;20048;-79
2022/08/16 09:03:04;;;;;;;4.53;3.13;;;;;;;41.82;14.81;100535.00;4735192;30;20051;-79
2022/08/16 09:05:35;;;;;;;7.32;3.70;;;;;;;41.96;14.59;100543.28;4734098;30;20052;-79
2022/08/16 09:08:01;;;;;;;6.95;3.33;;;;;;;42.22;15.15;100537.09;4733872;30;20071;-81
2022/08/16 09:10:38;;;;;;;7.50;3.20;;;;;;;42.14;14.59;100556.41;4749763;30;20062;-81
2022/08/16 09:13:04;;;;;;;3.40;3.10;;;;;;;41.50;15.35;100529.13;4736315;29;20047;-79
2022/08/16 09:15:47;;;;;;;4.30;3.25;;;;;;;42.68;14.80;100531.97;4734915;30;20052;-78
2022/08/16 09:18:16;;;;;;;4.88;3.15;;;;;;;43.03;14.37;100550.94;4742285;30;20055;-79
2022/08/16 09:20:44;;;;;;;7.07;3.00;;;;;;;43.20;14.40;100535.75;4737196;30;20048;-79
2022/08/16 09:23:12;;;;;;;3.58;3.20;;;;;;;43.58;14.27;100520.56;4755006;30;20056;-79
2022/08/16 09:25:43;;;;;;;6.13;3.10;;;;;;;44.28;14.29;100520.94;4737583;30;20523;-79
2022/08/16 09:28:15;;;;;;;5.97;2.92;;;;;;;44.60;13.48;100519.06;4738466;30;20108;-79
2022/08/16 09:30:54;;;;;;;5.43;3.50;;;;;;;44.85;13.48;100533.88;4736925;30;20055;-79
2022/08/16 09:33:21;;;;;;;4.72;3.40;;;;;;;43.71;13.81;100532.53;4754156;30;20880;-79
2022/08/16 09:35:48;;;;;;;5.97;3.30;;;;;;;43.30;14.64;100529.06;4754305;30;20048;-78
2022/08/16 09:38:15;;;;;;;3.97;3.15;;;;;;;42.78;14.66;100526.91;4755476;30;20473;-79
2022/08/16 09:40:43;;;;;;;5.85;3.28;;;;;;;42.35;14.96;100538.16;4737139;30;20066;-79
2022/08/16 09:43:10;;;;;;;4.50;3.45;;;;;;;42.43;14.74;100527.09;4736937;30;20565;-79
2022/08/16 09:45:40;;;;;;;8.30;3.50;;;;;;;42.07;15.22;100528.19;4723470;30;20470;-79
2022/08/16 09:48:08;;;;;;;8.07;3.80;;;;;;;41.22;15.61;100542.78;4737885;30;20472;-79
2022/08/16 09:50:36;;;;;;;7.32;3.55;;;;;;;40.25;15.73;100531.34;4737318;30;20058;-79
2022/08/16 09:53:04;;;;;;;12.30;4.20;;;;;;;40.02;16.41;100527.69;4753248;30;20100;-79
2022/08/16 09:55:30;;;;;;;4.10;3.63;;;;;;;40.92;15.62;100532.88;4753011;30;20052;-79
2022/08/16 09:57:59;;;;;;;5.70;3.55;;;;;;;41.14;16.12;100518.41;4745375;30;20499;-80
2022/08/16 10:00:29;;;;;;;6.33;3.70;;;;;;;41.27;14.93;100545.78;4752094;30;20051;-80
2022/08/16 10:02:55;;;;;;;4.55;3.85;;;;;;;40.64;15.60;100525.47;4722727;30;20499;-79
2022/08/16 10:05:21;;;;;;;7.32;3.90;;;;;;;40.44;15.83;100521.69;4736028;30;20048;-78
2022/08/16 10:07:51;;;;;;;6.43;3.90;;;;;;;40.68;15.84;100515.06;4722787;30;20044;-81
2022/08/16 10:10:22;;;;;;;6.07;3.90;;;;;;;41.09;15.80;100528.03;4722715;30;20101;-80
2022/08/16 10:15:35;;;;;;;3.92;3.63;;;;;;;41.01;15.71;100503.56;4753098;30;21545;-80
2022/08/16 10:18:06;;;;;;;6.40;3.90;;;;;;;41.47;15.42;100502.25;4752498;30;20051;-80
2022/08/16 10:20:38;;;;;;;4.25;3.30;;;;;;;41.98;14.58;100506.53;4735986;30;20074;-80
2022/08/16 10:23:06;;;;;;;5.68;3.70;;;;;;;41.22;15.33;100508.19;4753110;30;20056;-80
2022/08/16 10:25:38;;;;;;;4.57;3.60;;;;;;;40.68;15.76;100506.88;4751943;30;20524;-79
2022/08/16 10:28:04;;;;;;;7.93;3.88;;;;;;;40.55;16.77;100520.31;4737785;30;20122;-80
2022/08/16 10:30:30;;;;;;;6.45;3.53;;;;;;;40.47;16.49;100513.13;4739375;30;20062;-81
2022/08/16 10:32:57;;;;;;;8.02;4.30;;;;;;;40.05;16.48;100512.84;4753669;30;20479;-79
2022/08/16 10:35:24;;;;;;;4.43;4.03;;;;;;;40.46;16.23;100493.22;4753953;30;20059;-80
2022/08/16 10:37:50;;;;;;;4.55;4.15;;;;;;;40.64;15.90;100500.94;4722287;30;20040;-78
2022/08/16 10:40:20;;;;;;;4.10;3.60;;;;;;;39.05;16.30;100506.75;4737371;30;20044;-78
2022/08/16 10:42:48;;;;;;;7.40;3.80;;;;;;;37.48;18.72;100516.59;4737442;30;20048;-81
2022/08/16 10:45:17;;;;;;;7.70;3.65;;;;;;;36.66;18.49;100506.56;4764266;30;20085;-79
2022/08/16 10:47:44;;;;;;;5.85;3.67;;;;;;;35.92;19.91;100493.63;4770257;30;20211;-79
2022/08/16 10:50:10;;;;;;;7.35;4.20;;;;;;;35.28;19.91;100494.78;4757914;30;20051;-79
2022/08/16 10:52:37;;;;;;;5.22;3.88;;;;;;;35.27;21.00;100499.34;4756719;30;20054;-78
2022/08/16 10:55:06;;;;;;;8.13;4.40;;;;;;;34.74;21.26;100495.69;4755358;30;20067;-78
2022/08/16 10:57:32;;;;;;;5.40;4.70;;;;;;;34.23;21.78;100509.66;4737861;30;20347;-79
2022/08/16 10:59:58;;;;;;;8.80;6.03;;;;;;;33.90;22.23;100506.53;4753560;30;20153;-80
2022/08/16 11:02:25;;;;;;;7.53;5.07;;;;;;;33.65;22.99;100508.03;4753326;30;20487;-78
2022/08/16 11:04:52;;;;;;;5.88;4.10;;;;;;;33.00;23.47;100501.47;4723044;30;20059;-80
2022/08/16 11:07:19;;;;;;;6.40;4.32;;;;;;;32.66;23.96;100501.03;4751751;30;20051;-78
2022/08/16 11:09:45;;;;;;;5.10;4.22;;;;;;;32.35;24.81;100499.28;4739752;30;20068;-78
2022/08/16 11:12:11;;;;;;;6.88;4.00;;;;;;;32.11;24.31;100500.47;4762555;30;20067;-80
2022/08/16 11:14:38;;;;;;;7.43;4.03;;;;;;;32.15;24.77;100495.69;4746476;30;20040;-79
2022/08/16 11:17:05;;;;;;;3.92;3.58;;;;;;;31.86;25.26;100482.97;4756073;30;20131;-79
2022/08/16 11:19:32;;;;;;;5.68;3.90;;;;;;;31.42;25.75;100483.19;4743375;30;20071;-79
2022/08/16 11:21:59;;;;;;;5.70;4.15;;;;;;;31.13;25.53;100491.88;4738379;30;20100;-80
2022/08/16 11:24:27;;;;;;;4.05;3.50;;;;;;;30.84;26.54;100491.66;4742443;30;20048;-80
2022/08/16 11:26:53;;;;;;;6.65;3.83;;;;;;;30.71;26.41;100489.13;4752048;30;20389;-79
2022/08/16 11:29:19;;;;;;;7.50;3.95;;;;;;;30.68;27.17;100489.38;4756656;30;20044;-79
2022/08/16 11:31:46;;;;;;;6.82;3.65;;;;;;;30.74;26.85;100486.19;4738588;30;20052;-79